createdAt,value
2018-04-29T00:01:45.248Z,20.30
2018-04-29T00:04:13.629Z,28.73
2018-04-29T00:06:42.025Z,16.73
2018-04-29T00:09:11.057Z,22.93
2018-04-29T00:11:40.228Z,20.43
2018-04-29T00:14:08.519Z,20.00
2018-04-29T00:16:36.809Z,18.30
2018-04-29T00:19:05.876Z,18.50
2018-04-29T00:21:34.170Z,20.87
2018-04-29T00:24:02.472Z,18.30
2018-04-29T00:26:31.573Z,22.60
2018-04-29T00:29:00.639Z,19.70
2018-04-29T00:31:29.118Z,21.20
2018-04-29T00:33:57.703Z,21.07
2018-04-29T00:36:26.404Z,20.20
2018-04-29T00:38:55.451Z,22.70
2018-04-29T00:41:23.739Z,16.83
2018-04-29T00:43:52.111Z,19.80
2018-04-29T00:46:20.501Z,18.53
2018-04-29T00:48:48.796Z,19.17
2018-04-29T00:51:17.104Z,21.73
2018-04-29T00:53:46.281Z,20.43
2018-04-29T00:56:14.568Z,23.97
2018-04-29T00:58:42.850Z,25.17
2018-04-29T01:01:12.014Z,27.03
2018-04-29T01:03:40.706Z,27.93
2018-04-29T01:06:09.072Z,23.87
2018-04-29T01:08:37.615Z,23.07
2018-04-29T01:11:06.663Z,19.03
2018-04-29T01:13:35.039Z,19.40
2018-04-29T01:16:04.242Z,23.93
2018-04-29T01:18:32.557Z,22.63
2018-04-29T01:21:03.115Z,26.10
2018-04-29T01:23:31.403Z,26.03
2018-04-29T01:25:59.673Z,24.13
2018-04-29T01:28:28.433Z,26.00
2018-04-29T01:30:57.480Z,22.57
2018-04-29T01:33:25.774Z,24.20
2018-04-29T01:35:54.591Z,23.00
2018-04-29T01:38:24.390Z,24.77
2018-04-29T01:40:53.259Z,27.47
2018-04-29T01:43:22.044Z,25.87
2018-04-29T01:45:50.339Z,27.60
2018-04-29T01:48:19.002Z,31.10
2018-04-29T01:50:47.371Z,25.53
2018-04-29T01:53:15.642Z,26.63
2018-04-29T01:55:43.950Z,24.17
2018-04-29T01:58:12.890Z,21.50
2018-04-29T02:00:41.927Z,29.03
2018-04-29T02:03:10.247Z,22.30
2018-04-29T02:05:38.551Z,25.80
2018-04-29T02:08:06.830Z,26.93
2018-04-29T02:10:35.160Z,25.00
2018-04-29T02:13:03.467Z,37.97
2018-04-29T02:15:32.498Z,20.87
2018-04-29T02:18:01.251Z,23.63
2018-04-29T02:20:30.407Z,21.87
2018-04-29T02:22:58.712Z,16.87
2018-04-29T02:25:27.078Z,13.63
2018-04-29T02:27:55.341Z,13.70
2018-04-29T02:30:23.658Z,11.43
2018-04-29T02:32:51.964Z,18.10
2018-04-29T02:35:20.259Z,19.50
2018-04-29T02:37:48.707Z,27.63
2018-04-29T02:40:18.201Z,20.23
2018-04-29T02:42:46.478Z,16.73
2018-04-29T02:45:14.769Z,12.10
2018-04-29T02:47:43.827Z,13.67
2018-04-29T02:50:12.505Z,24.87
2018-04-29T02:52:41.426Z,30.60
2018-04-29T02:55:10.444Z,26.87
2018-04-29T02:57:39.823Z,23.67
2018-04-29T03:00:08.459Z,23.60
2018-04-29T03:02:36.733Z,33.77
2018-04-29T03:05:05.025Z,28.73
2018-04-29T03:07:33.622Z,32.47
2018-04-29T03:10:01.909Z,28.80
2018-04-29T03:12:30.540Z,29.87
2018-04-29T03:14:59.661Z,26.17
2018-04-29T03:17:28.472Z,34.40
2018-04-29T03:19:56.846Z,37.77
2018-04-29T03:22:25.208Z,35.57
2018-04-29T03:24:53.627Z,32.93
2018-04-29T03:27:22.831Z,34.13
2018-04-29T03:29:51.621Z,22.23
2018-04-29T03:32:20.331Z,26.57
2018-04-29T03:34:49.499Z,31.27
2018-04-29T03:37:18.261Z,26.13
2018-04-29T03:39:46.543Z,29.23
2018-04-29T03:42:14.826Z,30.57
2018-04-29T03:44:43.309Z,30.60
2018-04-29T03:47:11.630Z,25.30
2018-04-29T03:49:39.920Z,22.60
2018-04-29T03:52:08.998Z,32.40
2018-04-29T03:54:37.302Z,30.70
2018-04-29T03:57:24.085Z,32.93
2018-04-29T04:00:10.803Z,24.57
2018-04-29T04:05:48.794Z,20.60
2018-04-29T04:08:17.182Z,17.10
2018-04-29T04:10:45.884Z,19.50
2018-04-29T04:13:15.106Z,27.50
2018-04-29T04:15:44.166Z,29.73
2018-04-29T04:18:12.450Z,22.37
2018-04-29T04:20:41.435Z,25.97
2018-04-29T04:23:10.357Z,29.00
2018-04-29T04:25:38.640Z,18.80
2018-04-29T04:28:07.701Z,28.50
2018-04-29T04:30:35.987Z,25.33
2018-04-29T04:33:04.868Z,36.70
2018-04-29T04:35:33.155Z,28.60
2018-04-29T04:38:01.518Z,36.27
2018-04-29T04:40:29.818Z,45.77
2018-04-29T04:42:58.101Z,40.83
2018-04-29T04:45:26.408Z,37.93
2018-04-29T04:47:54.702Z,29.63
2018-04-29T04:50:22.975Z,41.23
2018-04-29T04:52:51.274Z,37.80
2018-04-29T04:55:19.621Z,33.97
2018-04-29T04:57:48.670Z,35.37
2018-04-29T05:00:16.977Z,44.53
2018-04-29T05:02:45.596Z,37.43
2018-04-29T05:05:14.443Z,33.87
2018-04-29T05:07:43.007Z,42.13
2018-04-29T05:10:11.304Z,32.43
2018-04-29T05:12:39.584Z,39.70
2018-04-29T05:15:08.436Z,32.97
2018-04-29T05:17:36.710Z,37.97
2018-04-29T05:20:04.988Z,36.50
2018-04-29T05:22:33.297Z,41.57
2018-04-29T05:25:01.909Z,30.30
2018-04-29T05:27:30.951Z,41.07
2018-04-29T05:29:59.259Z,42.27
2018-04-29T05:32:28.246Z,37.37
2018-04-29T05:34:56.628Z,33.33
2018-04-29T05:37:24.921Z,34.63
2018-04-29T05:39:53.265Z,39.30
2018-04-29T05:42:21.542Z,40.97
2018-04-29T05:44:50.635Z,36.63
2018-04-29T05:47:18.948Z,28.97
2018-04-29T05:49:47.337Z,40.03
2018-04-29T05:52:15.591Z,30.47
2018-04-29T05:54:44.423Z,27.90
2018-04-29T05:57:14.423Z,34.77
2018-04-29T05:59:43.199Z,34.63
2018-04-29T06:02:11.838Z,29.93
2018-04-29T06:04:40.122Z,22.90
2018-04-29T06:07:08.399Z,23.80
2018-04-29T06:09:36.711Z,30.07
2018-04-29T06:12:05.017Z,28.60
2018-04-29T06:14:33.310Z,29.47
2018-04-29T06:17:02.948Z,30.00
2018-04-29T06:19:31.355Z,29.47
2018-04-29T06:22:00.019Z,26.50
2018-04-29T06:24:29.381Z,32.17
2018-04-29T06:26:58.443Z,22.40
2018-04-29T06:29:26.753Z,26.13
2018-04-29T06:31:55.842Z,27.10
2018-04-29T06:34:24.511Z,29.73
2018-04-29T06:36:53.391Z,24.83
2018-04-29T06:39:21.702Z,23.00
2018-04-29T06:41:50.754Z,23.33
2018-04-29T06:44:19.038Z,25.37
2018-04-29T06:46:47.472Z,22.90
2018-04-29T06:49:16.252Z,20.60
2018-04-29T06:51:45.612Z,30.27
2018-04-29T06:54:13.992Z,21.40
2018-04-29T06:56:42.860Z,18.30
2018-04-29T06:59:11.155Z,21.03
2018-04-29T07:01:39.452Z,15.57
2018-04-29T07:04:07.801Z,24.50
2018-04-29T07:06:36.126Z,18.23
2018-04-29T07:09:04.429Z,20.50
2018-04-29T07:11:33.692Z,20.20
2018-04-29T07:14:02.468Z,19.17
2018-04-29T07:16:30.752Z,24.27
2018-04-29T07:18:59.040Z,25.77
2018-04-29T07:21:27.391Z,25.97
2018-04-29T07:23:55.658Z,24.77
2018-04-29T07:26:24.251Z,27.97
2018-04-29T07:28:52.534Z,20.17
2018-04-29T07:31:20.923Z,21.87
2018-04-29T07:33:49.234Z,27.43
2018-04-29T07:36:17.526Z,24.53
2018-04-29T07:38:46.563Z,23.13
2018-04-29T07:41:15.168Z,24.20
2018-04-29T07:43:43.664Z,20.70
2018-04-29T07:46:12.519Z,25.67
2018-04-29T07:48:40.829Z,21.30
2018-04-29T07:51:09.390Z,20.10
2018-04-29T07:53:37.697Z,19.13
2018-04-29T07:56:06.958Z,20.27
2018-04-29T07:58:35.439Z,22.77
2018-04-29T08:01:04.278Z,23.70
2018-04-29T08:03:32.551Z,20.17
2018-04-29T08:06:00.864Z,25.87
2018-04-29T08:08:29.166Z,22.87
2018-04-29T08:10:57.462Z,31.13
2018-04-29T08:13:25.826Z,21.07
2018-04-29T08:15:54.103Z,24.20
2018-04-29T08:18:22.391Z,24.93
2018-04-29T08:20:50.864Z,24.60
2018-04-29T08:23:19.166Z,21.60
2018-04-29T08:25:47.438Z,21.60
2018-04-29T08:28:15.722Z,20.97
2018-04-29T08:30:44.013Z,19.47
2018-04-29T08:33:12.283Z,20.47
2018-04-29T08:35:40.638Z,19.03
2018-04-29T08:38:09.022Z,16.23
2018-04-29T08:40:37.306Z,25.73
2018-04-29T08:43:05.769Z,19.90
2018-04-29T08:45:34.058Z,19.60
2018-04-29T08:48:02.722Z,23.13
2018-04-29T08:50:32.043Z,24.23
2018-04-29T08:53:00.313Z,24.00
2018-04-29T08:55:28.586Z,20.37
2018-04-29T08:57:56.879Z,26.03
2018-04-29T09:00:25.175Z,31.53
2018-04-29T09:02:53.844Z,20.20
2018-04-29T09:05:22.319Z,21.50
2018-04-29T09:07:50.686Z,22.57
2018-04-29T09:10:19.186Z,20.33
2018-04-29T09:12:47.654Z,20.97
2018-04-29T09:15:16.595Z,22.10
2018-04-29T09:17:44.956Z,18.43
2018-04-29T09:20:13.332Z,19.00
2018-04-29T09:22:42.248Z,19.73
2018-04-29T09:25:10.517Z,18.97
2018-04-29T09:27:38.792Z,17.83
2018-04-29T09:30:07.311Z,23.33
2018-04-29T09:32:36.460Z,19.87
2018-04-29T09:35:04.758Z,22.33
2018-04-29T09:37:33.067Z,20.13
2018-04-29T09:40:02.106Z,22.33
2018-04-29T09:42:31.138Z,23.97
2018-04-29T09:44:59.742Z,21.83
2018-04-29T09:47:28.812Z,20.10
2018-04-29T09:49:57.099Z,22.40
2018-04-29T09:52:26.155Z,20.97
2018-04-29T09:54:54.614Z,22.20
2018-04-29T09:57:22.885Z,25.00
2018-04-29T09:59:51.152Z,18.90
2018-04-29T10:02:24.350Z,36.30
2018-04-29T10:04:52.865Z,19.00
2018-04-29T10:07:21.158Z,21.07
2018-04-29T10:09:49.452Z,18.80
2018-04-29T10:12:17.739Z,21.57
2018-04-29T10:14:46.363Z,19.17
2018-04-29T10:17:14.667Z,21.70
2018-04-29T10:19:43.744Z,20.57
2018-04-29T10:22:12.643Z,17.53
2018-04-29T10:24:40.991Z,17.50
2018-04-29T10:27:09.988Z,20.20
2018-04-29T10:29:39.512Z,19.33
2018-04-29T10:32:08.901Z,17.80
2018-04-29T10:34:37.946Z,22.83
2018-04-29T10:37:06.236Z,17.00
2018-04-29T10:39:34.517Z,19.03
2018-04-29T10:42:03.476Z,23.03
2018-04-29T10:44:32.380Z,23.67
2018-04-29T10:47:00.682Z,19.23
2018-04-29T10:49:28.974Z,18.40
2018-04-29T10:51:58.738Z,16.13
2018-04-29T10:54:28.564Z,21.70
2018-04-29T10:56:57.554Z,27.00
2018-04-29T10:59:25.831Z,17.67
2018-04-29T11:01:54.136Z,22.83
2018-04-29T11:04:24.016Z,15.37
2018-04-29T11:06:52.407Z,27.10
2018-04-29T11:09:20.967Z,23.50
2018-04-29T11:11:49.245Z,19.60
2018-04-29T11:14:17.666Z,19.30
2018-04-29T11:16:46.013Z,18.27
2018-04-29T11:19:14.293Z,11.10
2018-04-29T11:21:42.811Z,11.87
2018-04-29T11:24:11.099Z,18.17
2018-04-29T11:26:39.430Z,17.63
2018-04-29T11:29:08.517Z,16.20
2018-04-29T11:31:38.138Z,19.73
2018-04-29T11:34:06.450Z,17.37
2018-04-29T11:36:35.357Z,11.70
2018-04-29T11:39:03.636Z,12.50
2018-04-29T11:41:35.035Z,17.90
2018-04-29T11:44:04.047Z,14.30
2018-04-29T11:46:32.342Z,13.40
2018-04-29T11:49:00.651Z,16.20
2018-04-29T11:51:29.791Z,15.50
2018-04-29T11:53:58.082Z,14.83
2018-04-29T11:56:26.802Z,14.90
2018-04-29T11:58:56.251Z,14.10
2018-04-29T12:01:24.648Z,19.00
2018-04-29T12:03:52.977Z,17.40
2018-04-29T12:06:22.031Z,14.37
2018-04-29T12:08:50.347Z,13.77
2018-04-29T12:11:19.406Z,19.67
2018-04-29T12:13:48.398Z,16.13
2018-04-29T12:16:17.340Z,12.03
2018-04-29T12:18:46.398Z,14.50
2018-04-29T12:21:14.760Z,16.10
2018-04-29T12:23:43.363Z,17.40
2018-04-29T12:26:12.471Z,16.77
2018-04-29T12:28:40.771Z,18.23
2018-04-29T12:31:09.827Z,16.67
2018-04-29T12:33:38.292Z,14.77
2018-04-29T12:36:06.482Z,14.37
2018-04-29T12:38:35.174Z,15.70
2018-04-29T12:41:03.729Z,21.83
2018-04-29T12:43:32.023Z,12.63
2018-04-29T12:46:00.560Z,10.50
2018-04-29T12:48:29.897Z,12.47
2018-04-29T12:50:58.178Z,14.40
2018-04-29T12:53:27.123Z,9.77
2018-04-29T12:55:56.270Z,14.33
2018-04-29T12:58:25.797Z,17.60
2018-04-29T13:00:54.069Z,11.83
2018-04-29T13:03:22.992Z,13.83
2018-04-29T13:05:51.527Z,15.50
2018-04-29T13:08:19.795Z,15.83
2018-04-29T13:10:48.095Z,18.03
2018-04-29T13:13:16.380Z,17.10
2018-04-29T13:15:44.744Z,18.77
2018-04-29T13:18:13.058Z,15.57
2018-04-29T13:20:41.352Z,16.27
2018-04-29T13:23:10.510Z,15.00
2018-04-29T13:25:38.876Z,15.43
2018-04-29T13:28:07.166Z,16.43
2018-04-29T13:30:35.518Z,15.20
2018-04-29T13:33:03.844Z,14.83
2018-04-29T13:35:32.129Z,12.27
2018-04-29T13:38:00.890Z,14.97
2018-04-29T13:40:29.260Z,13.13
2018-04-29T13:42:57.740Z,17.00
2018-04-29T13:45:26.037Z,17.70
2018-04-29T13:47:54.769Z,20.50
2018-04-29T13:50:23.810Z,26.70
2018-04-29T13:52:52.410Z,23.43
2018-04-29T13:55:20.748Z,19.90
2018-04-29T13:57:49.812Z,22.53
2018-04-29T14:00:19.006Z,24.03
2018-04-29T14:02:47.999Z,24.83
2018-04-29T14:05:16.282Z,24.70
2018-04-29T14:07:45.367Z,20.87
2018-04-29T14:10:13.683Z,22.63
2018-04-29T14:12:42.717Z,23.47
2018-04-29T14:15:11.286Z,27.63
2018-04-29T14:17:40.482Z,24.00
2018-04-29T14:20:09.186Z,30.30
2018-04-29T14:22:37.562Z,21.40
2018-04-29T14:25:05.873Z,17.97
2018-04-29T14:27:34.798Z,21.13
2018-04-29T14:30:04.010Z,23.47
2018-04-29T14:32:32.419Z,16.20
2018-04-29T14:35:00.813Z,19.33
2018-04-29T14:37:29.301Z,26.43
2018-04-29T14:39:57.668Z,15.53
2018-04-29T14:42:25.950Z,16.87
2018-04-29T14:44:54.263Z,15.87
2018-04-29T14:47:24.255Z,17.97
2018-04-29T14:49:53.107Z,14.13
2018-04-29T14:52:22.071Z,19.03
2018-04-29T14:54:51.661Z,15.50
2018-04-29T14:57:20.390Z,20.17
2018-04-29T14:59:48.890Z,17.17
2018-04-29T15:02:17.190Z,18.40
2018-04-29T15:04:45.479Z,18.57
2018-04-29T15:07:14.439Z,22.57
2018-04-29T15:09:42.743Z,19.40
2018-04-29T15:12:11.753Z,18.83
2018-04-29T15:14:40.922Z,20.93
2018-04-29T15:17:09.933Z,18.13
2018-04-29T15:19:50.271Z,20.53
2018-04-29T15:22:18.551Z,19.47
2018-04-29T15:24:46.889Z,23.30
2018-04-29T15:27:15.156Z,19.80
2018-04-29T15:29:44.233Z,19.30
2018-04-29T15:32:12.574Z,21.97
2018-04-29T15:34:40.850Z,21.03
2018-04-29T15:37:09.138Z,17.13
2018-04-29T15:39:37.626Z,18.70
2018-04-29T15:42:05.923Z,20.60
2018-04-29T15:44:34.213Z,16.87
2018-04-29T15:47:03.262Z,20.73
2018-04-29T15:49:31.574Z,19.07
2018-04-29T15:52:00.027Z,18.70
2018-04-29T15:54:28.422Z,19.10
2018-04-29T15:56:57.611Z,20.13
2018-04-29T15:59:26.079Z,13.60
2018-04-29T16:01:54.468Z,25.03
2018-04-29T16:04:22.755Z,17.43
2018-04-29T16:06:51.090Z,23.20
2018-04-29T16:09:19.418Z,21.27
2018-04-29T16:11:47.722Z,19.47
2018-04-29T16:14:17.439Z,21.70
2018-04-29T16:16:46.490Z,22.90
2018-04-29T16:19:14.873Z,22.27
2018-04-29T16:21:43.241Z,23.43
2018-04-29T16:24:11.616Z,20.00
2018-04-29T16:26:39.911Z,25.90
2018-04-29T16:29:08.675Z,25.83
2018-04-29T16:31:36.962Z,29.80
2018-04-29T16:34:05.261Z,21.80
2018-04-29T16:36:34.181Z,23.60
2018-04-29T16:39:03.338Z,23.43
2018-04-29T16:41:31.625Z,21.60
2018-04-29T16:44:00.027Z,25.20
2018-04-29T16:46:29.198Z,27.23
2018-04-29T16:48:57.497Z,27.63
2018-04-29T16:51:26.506Z,25.67
2018-04-29T16:53:54.826Z,23.00
2018-04-29T16:56:23.114Z,25.97
2018-04-29T16:58:51.386Z,31.03
2018-04-29T17:01:19.790Z,21.20
2018-04-29T17:03:48.060Z,20.37
2018-04-29T17:06:16.368Z,28.40
2018-04-29T17:08:45.390Z,26.53
2018-04-29T17:11:14.439Z,21.70
2018-04-29T17:13:42.805Z,20.50
2018-04-29T17:16:11.116Z,28.00
2018-04-29T17:18:39.739Z,24.30
2018-04-29T17:21:08.062Z,27.93
2018-04-29T17:23:37.174Z,22.97
2018-04-29T17:26:06.017Z,22.10
2018-04-29T17:28:34.571Z,32.13
2018-04-29T17:31:03.655Z,22.10
2018-04-29T17:33:32.020Z,30.80
2018-04-29T17:36:00.560Z,33.80
2018-04-29T17:38:28.872Z,28.03
2018-04-29T17:40:57.647Z,23.17
2018-04-29T17:43:25.962Z,26.50
2018-04-29T17:45:54.301Z,26.30
2018-04-29T17:48:22.579Z,32.23
2018-04-29T17:50:50.874Z,31.97
2018-04-29T17:53:20.218Z,34.57
2018-04-29T17:55:49.308Z,29.03
2018-04-29T17:58:18.650Z,33.30
2018-04-29T18:00:46.993Z,39.67
2018-04-29T18:03:16.254Z,32.90
2018-04-29T18:05:45.174Z,30.70
2018-04-29T18:08:13.460Z,35.63
2018-04-29T18:10:42.556Z,36.83
2018-04-29T18:13:10.856Z,31.83
2018-04-29T18:15:40.109Z,34.77
2018-04-29T18:18:08.414Z,37.90
2018-04-29T18:20:36.703Z,38.23
2018-04-29T18:23:06.119Z,36.53
2018-04-29T18:25:34.398Z,32.60
2018-04-29T18:28:02.691Z,36.87
2018-04-29T18:30:30.991Z,28.60
2018-04-29T18:32:59.984Z,30.03
2018-04-29T18:35:29.788Z,30.17
2018-04-29T18:37:58.071Z,36.20
2018-04-29T18:40:27.361Z,29.60
2018-04-29T18:42:55.659Z,41.57
2018-04-29T18:45:23.958Z,37.30
2018-04-29T18:47:52.328Z,31.97
2018-04-29T18:50:21.733Z,26.57
2018-04-29T18:52:51.418Z,30.73
2018-04-29T18:55:21.568Z,33.03
2018-04-29T18:57:50.209Z,30.37
2018-04-29T19:00:18.591Z,34.93
2018-04-29T19:02:46.891Z,29.47
2018-04-29T19:05:15.203Z,32.20
2018-04-29T19:07:43.606Z,24.77
2018-04-29T19:10:11.875Z,28.67
2018-04-29T19:12:41.379Z,30.60
2018-04-29T19:15:10.457Z,25.37
2018-04-29T19:17:39.121Z,28.10
2018-04-29T19:20:07.411Z,29.00
2018-04-29T19:22:36.238Z,27.80
2018-04-29T19:25:05.386Z,31.30
2018-04-29T19:27:34.150Z,32.33
2018-04-29T19:30:02.563Z,35.53
2018-04-29T19:32:30.951Z,25.37
2018-04-29T19:35:00.695Z,21.63
2018-04-29T19:37:29.990Z,34.90
2018-04-29T19:39:58.338Z,32.47
2018-04-29T19:42:27.322Z,19.00
2018-04-29T19:44:55.628Z,22.40
2018-04-29T19:47:23.960Z,28.60
2018-04-29T19:49:52.258Z,30.53
2018-04-29T19:52:20.539Z,34.83
2018-04-29T19:54:48.871Z,29.43
2018-04-29T19:57:18.430Z,29.13
2018-04-29T19:59:46.728Z,34.70
2018-04-29T20:02:15.039Z,27.87
2018-04-29T20:04:44.132Z,34.10
2018-04-29T20:07:13.263Z,32.53
2018-04-29T20:09:41.699Z,31.80
2018-04-29T20:12:11.436Z,36.63
2018-04-29T20:14:39.717Z,34.07
2018-04-29T20:17:07.987Z,41.63
2018-04-29T20:19:36.322Z,39.60
2018-04-29T20:22:04.595Z,38.00
2018-04-29T20:24:33.403Z,35.83
2018-04-29T20:27:03.541Z,39.60
2018-04-29T20:29:32.952Z,41.07
2018-04-29T20:32:02.043Z,41.73
2018-04-29T20:34:31.195Z,38.80
2018-04-29T20:36:59.487Z,41.73
2018-04-29T20:39:27.859Z,40.70
2018-04-29T20:41:56.169Z,36.20
2018-04-29T20:44:25.238Z,42.80
2018-04-29T20:46:54.048Z,38.57
2018-04-29T20:49:22.838Z,33.43
2018-04-29T20:51:51.128Z,44.40
2018-04-29T20:54:20.281Z,41.27
2018-04-29T20:56:48.970Z,47.27
2018-04-29T20:59:17.411Z,45.30
2018-04-29T21:01:45.694Z,38.70
2018-04-29T21:04:14.826Z,36.80
2018-04-29T21:06:43.748Z,41.77
2018-04-29T21:09:12.050Z,39.67
2018-04-29T21:11:41.095Z,49.83
2018-04-29T21:14:09.380Z,47.90
2018-04-29T21:16:38.254Z,38.83
2018-04-29T21:19:06.581Z,43.93
2018-04-29T21:21:35.819Z,39.73
2018-04-29T21:24:04.100Z,41.63
2018-04-29T21:26:32.380Z,47.03
2018-04-29T21:29:00.792Z,35.50
2018-04-29T21:31:29.514Z,39.43
2018-04-29T21:33:57.890Z,39.00
2018-04-29T21:36:27.042Z,43.73
2018-04-29T21:38:55.409Z,37.37
2018-04-29T21:41:23.731Z,39.87
2018-04-29T21:43:52.045Z,41.90
2018-04-29T21:46:20.339Z,43.17
2018-04-29T21:48:49.300Z,38.40
2018-04-29T21:51:18.440Z,45.57
2018-04-29T21:53:46.766Z,44.60
2018-04-29T21:56:15.827Z,42.57
2018-04-29T21:58:44.151Z,36.63
2018-04-29T22:01:12.476Z,37.93
2018-04-29T22:03:40.855Z,54.10
2018-04-29T22:06:10.080Z,45.00
2018-04-29T22:08:38.391Z,43.00
2018-04-29T22:11:07.519Z,38.93
2018-04-29T22:13:35.800Z,45.33
2018-04-29T22:16:04.331Z,45.43
2018-04-29T22:18:33.727Z,44.63
2018-04-29T22:21:02.169Z,49.17
2018-04-29T22:23:30.450Z,43.43
2018-04-29T22:25:58.967Z,43.70
2018-04-29T22:28:28.042Z,41.93
2018-04-29T22:30:56.730Z,43.60
2018-04-29T22:33:25.010Z,45.03
2018-04-29T22:35:53.310Z,43.77
2018-04-29T22:38:22.320Z,49.10
2018-04-29T22:40:51.369Z,40.80
2018-04-29T22:43:19.940Z,41.00
2018-04-29T22:45:48.219Z,41.60
2018-04-29T22:48:17.134Z,47.17
2018-04-29T22:50:45.720Z,54.40
2018-04-29T22:53:14.044Z,37.80
2018-04-29T22:55:43.183Z,50.20
2018-04-29T22:58:12.153Z,45.43
2018-04-29T23:00:40.438Z,44.13
2018-04-29T23:03:08.759Z,43.03
2018-04-29T23:05:37.047Z,48.03
2018-04-29T23:08:05.329Z,42.33
2018-04-29T23:10:34.390Z,49.30
2018-04-29T23:13:03.174Z,52.00
2018-04-29T23:15:31.549Z,44.70
2018-04-29T23:17:59.838Z,41.87
2018-04-29T23:20:28.145Z,50.57
2018-04-29T23:22:56.455Z,40.40
2018-04-29T23:25:24.733Z,53.97
2018-04-29T23:27:53.018Z,47.60
2018-04-29T23:30:21.935Z,46.03
2018-04-29T23:32:50.530Z,46.47
2018-04-29T23:35:18.861Z,42.83
2018-04-29T23:37:47.891Z,50.30
2018-04-29T23:40:16.166Z,43.73
2018-04-29T23:42:44.440Z,42.67
2018-04-29T23:45:12.758Z,40.93
2018-04-29T23:47:43.157Z,46.67
2018-04-29T23:50:11.436Z,47.87
2018-04-29T23:52:39.710Z,40.67
2018-04-29T23:55:08.398Z,52.43
2018-04-29T23:57:36.676Z,41.57
